createdAt,value
2023-03-03T00:00:13.686Z,0.4
2023-03-03T00:03:12.520Z,0.4
2023-03-03T00:06:12.104Z,0.4
2023-03-03T00:09:12.305Z,0.4
2023-03-03T00:12:12.119Z,0.5
2023-03-03T00:15:12.214Z,0.4
2023-03-03T00:18:12.189Z,0.4
2023-03-03T00:21:12.310Z,0.4
2023-03-03T00:24:12.129Z,0.4
2023-03-03T00:27:12.168Z,0.4
2023-03-03T00:30:12.300Z,0.4
2023-03-03T00:33:12.154Z,0.4
2023-03-03T00:36:12.232Z,0.4
2023-03-03T00:39:12.155Z,0.4
2023-03-03T00:42:12.199Z,0.4
2023-03-03T00:45:12.186Z,0.4
2023-03-03T00:48:12.207Z,0.4
2023-03-03T00:51:12.102Z,0.3
2023-03-03T00:54:12.263Z,0.3
2023-03-03T00:57:12.139Z,0.3
2023-03-03T01:00:12.181Z,0.3
2023-03-03T01:03:12.311Z,0.3
2023-03-03T01:06:12.195Z,0.3
2023-03-03T01:09:12.119Z,0.3
2023-03-03T01:12:12.152Z,0.3
2023-03-03T01:15:12.225Z,0.1
2023-03-03T01:18:12.182Z,0.1
2023-03-03T01:21:12.139Z,0.1
2023-03-03T01:24:12.214Z,0.1
2023-03-03T01:27:12.110Z,0.1
2023-03-03T01:30:12.214Z,0.1
2023-03-03T01:33:12.161Z,0.1
2023-03-03T01:36:12.376Z,0.1
2023-03-03T01:39:12.109Z,0.1
2023-03-03T01:42:12.159Z,0.1
2023-03-03T01:45:12.247Z,0.1
2023-03-03T01:48:12.189Z,0.1
2023-03-03T01:51:12.120Z,0.1
2023-03-03T01:54:12.234Z,0.1
2023-03-03T01:57:12.141Z,0.1
2023-03-03T02:00:12.187Z,0.1
2023-03-03T02:03:12.671Z,0.3
2023-03-03T02:06:12.213Z,0.1
2023-03-03T02:09:12.195Z,0.1
2023-03-03T02:12:12.236Z,0.1
2023-03-03T02:15:12.118Z,0.1
2023-03-03T02:18:12.249Z,0.1
2023-03-03T02:21:12.163Z,0.1
2023-03-03T02:24:12.188Z,0.3
2023-03-03T02:27:12.140Z,0.3
2023-03-03T02:30:12.192Z,0.3
2023-03-03T02:33:12.169Z,0.4
2023-03-03T02:36:12.231Z,0.4
2023-03-03T02:39:12.254Z,0.3
2023-03-03T02:42:12.148Z,0.3
2023-03-03T02:45:12.259Z,0.3
2023-03-03T02:48:12.183Z,0.3
2023-03-03T02:51:12.239Z,0.3
2023-03-03T02:54:12.377Z,0.3
2023-03-03T02:57:12.205Z,0.3
2023-03-03T03:00:12.169Z,0.3
2023-03-03T03:03:12.256Z,0.3
2023-03-03T03:06:12.231Z,0.3
2023-03-03T03:09:12.188Z,0.4
2023-03-03T03:12:12.267Z,0.3
2023-03-03T03:15:12.203Z,0.3
2023-03-03T03:18:12.418Z,0.3
2023-03-03T03:21:12.180Z,0.4
2023-03-03T03:24:12.196Z,0.4
2023-03-03T03:27:12.186Z,0.4
2023-03-03T03:30:12.161Z,0.4
2023-03-03T03:33:12.157Z,0.4
2023-03-03T03:36:12.182Z,0.5
2023-03-03T03:39:12.211Z,0.5
2023-03-03T03:42:12.179Z,0.5
2023-03-03T03:45:12.182Z,0.4
2023-03-03T03:48:12.133Z,0.4
2023-03-03T03:51:12.160Z,0.4
2023-03-03T03:54:12.101Z,0.4
2023-03-03T03:57:12.156Z,0.4
2023-03-03T04:00:12.726Z,0.4
2023-03-03T04:03:13.318Z,0.4
2023-03-03T04:06:12.172Z,0.4
2023-03-03T04:09:12.190Z,0.4
2023-03-03T04:12:12.124Z,0.4
2023-03-03T04:15:12.140Z,0.4
2023-03-03T04:18:12.197Z,0.4
2023-03-03T04:21:12.142Z,0.4
2023-03-03T04:24:12.177Z,0.4
2023-03-03T04:27:12.122Z,0.4
2023-03-03T04:30:12.158Z,0.4
2023-03-03T04:33:12.263Z,0.4
2023-03-03T04:36:12.176Z,0.4
2023-03-03T04:39:12.134Z,0.5
2023-03-03T04:42:12.116Z,0.5
2023-03-03T04:45:12.237Z,0.5
2023-03-03T04:48:12.167Z,0.5
2023-03-03T04:51:12.238Z,0.5
2023-03-03T04:54:12.185Z,0.5
2023-03-03T04:57:12.285Z,0.6
2023-03-03T05:00:12.241Z,0.6
2023-03-03T05:03:12.200Z,0.6
2023-03-03T05:06:12.134Z,0.6
2023-03-03T05:09:12.124Z,0.8
2023-03-03T05:12:12.169Z,0.8
2023-03-03T05:15:12.166Z,0.8
2023-03-03T05:18:12.127Z,0.8
2023-03-03T05:21:12.084Z,0.8
2023-03-03T05:24:12.184Z,0.8
2023-03-03T05:27:12.127Z,0.8
2023-03-03T05:30:12.170Z,0.8
2023-03-03T05:33:12.402Z,0.8
2023-03-03T05:36:12.110Z,0.8
2023-03-03T05:39:12.271Z,0.8
2023-03-03T05:42:12.104Z,0.8
2023-03-03T05:45:12.220Z,0.8
2023-03-03T05:48:12.110Z,0.9
2023-03-03T05:51:12.157Z,0.8
2023-03-03T05:54:12.121Z,0.8
2023-03-03T05:57:12.269Z,0.9
2023-03-03T06:00:12.157Z,0.9
2023-03-03T06:03:12.524Z,0.9
2023-03-03T06:06:12.339Z,0.9
2023-03-03T06:09:12.269Z,0.9
2023-03-03T06:12:12.212Z,1
2023-03-03T06:15:12.618Z,1
2023-03-03T06:18:12.252Z,1
2023-03-03T06:21:12.243Z,1
2023-03-03T06:24:12.303Z,1
2023-03-03T06:27:12.361Z,1.1
2023-03-03T06:30:12.469Z,1.1
2023-03-03T06:33:12.291Z,1.1
2023-03-03T06:36:16.688Z,1.3
2023-03-03T06:39:12.195Z,1.3
2023-03-03T06:42:12.246Z,1.4
2023-03-03T06:45:12.184Z,1.4
2023-03-03T06:48:12.320Z,1.5
2023-03-03T06:51:12.181Z,1.5
2023-03-03T06:54:12.313Z,1.6
2023-03-03T06:57:12.223Z,1.6
2023-03-03T07:00:12.486Z,1.8
2023-03-03T07:03:12.245Z,1.8
2023-03-03T07:06:15.148Z,1.9
2023-03-03T07:09:12.168Z,1.9
2023-03-03T07:12:12.688Z,1.9
2023-03-03T07:15:12.282Z,2
2023-03-03T07:18:12.220Z,2
2023-03-03T07:21:12.186Z,2.2
2023-03-03T07:24:12.243Z,2.4
2023-03-03T07:27:12.180Z,2.5
2023-03-03T07:30:12.387Z,2.6
2023-03-03T07:33:12.218Z,2.7
2023-03-03T07:36:12.229Z,2.9
2023-03-03T07:39:12.257Z,3.1
2023-03-03T07:42:12.400Z,3.4
2023-03-03T07:45:12.235Z,3.5
2023-03-03T07:48:12.160Z,3.6
2023-03-03T07:51:12.263Z,3.6
2023-03-03T07:54:12.438Z,3.7
2023-03-03T07:57:12.190Z,3.7
2023-03-03T08:00:13.010Z,3.9
2023-03-03T08:03:12.296Z,3.9
2023-03-03T08:06:12.277Z,4
2023-03-03T08:09:12.203Z,4.1
2023-03-03T08:12:12.394Z,4.1
2023-03-03T08:15:12.193Z,4
2023-03-03T08:18:12.262Z,4.1
2023-03-03T08:21:12.261Z,4.2
2023-03-03T08:24:12.292Z,4.2
2023-03-03T08:27:12.203Z,4.4
2023-03-03T08:30:12.325Z,4.6
2023-03-03T08:33:12.325Z,5
2023-03-03T08:36:12.894Z,5.1
2023-03-03T08:39:12.221Z,5.4
2023-03-03T08:42:13.671Z,5.4
2023-03-03T08:45:12.385Z,5.5
2023-03-03T08:48:14.861Z,5.5
2023-03-03T08:51:12.267Z,5.5
2023-03-03T08:54:12.273Z,5.6
2023-03-03T08:57:12.316Z,5.6
2023-03-03T09:00:12.245Z,5.7
2023-03-03T09:03:12.514Z,6
2023-03-03T09:06:12.313Z,6.2
2023-03-03T09:09:12.256Z,6.4
2023-03-03T09:12:12.226Z,6.6
2023-03-03T09:15:12.219Z,6.9
2023-03-03T09:18:12.352Z,6.7
2023-03-03T09:21:12.362Z,6.7
2023-03-03T09:24:12.252Z,6.9
2023-03-03T09:27:12.202Z,7
2023-03-03T09:30:12.420Z,7
2023-03-03T09:33:12.256Z,7
2023-03-03T09:36:12.279Z,6.9
2023-03-03T09:39:12.333Z,6.6
2023-03-03T09:42:12.338Z,6.6
2023-03-03T09:45:12.334Z,6.7
2023-03-03T09:48:12.232Z,6.9
2023-03-03T09:51:12.194Z,7.1
2023-03-03T09:54:12.246Z,7.4
2023-03-03T09:57:12.204Z,7.6
2023-03-03T10:00:12.253Z,7.7
2023-03-03T10:03:12.638Z,7.9
2023-03-03T10:06:12.164Z,7.7
2023-03-03T10:09:12.385Z,7.6
2023-03-03T10:12:12.284Z,7.4
2023-03-03T10:15:12.264Z,7.5
2023-03-03T10:18:12.360Z,7.5
2023-03-03T10:21:12.245Z,7.6
2023-03-03T10:24:12.354Z,7.5
2023-03-03T10:27:25.383Z,7.6
2023-03-03T10:30:12.346Z,7.5
2023-03-03T10:33:14.017Z,7.5
2023-03-03T10:36:20.188Z,7.7
2023-03-03T10:39:12.345Z,7.9
2023-03-03T10:42:12.291Z,8
2023-03-03T10:45:12.311Z,8
2023-03-03T10:48:12.406Z,8.1
2023-03-03T10:51:13.357Z,8.4
2023-03-03T10:54:12.293Z,8.5
2023-03-03T10:57:12.271Z,8.5
2023-03-03T11:00:12.365Z,8.5
2023-03-03T11:03:12.828Z,8.4
2023-03-03T11:06:12.526Z,8.3
2023-03-03T11:09:12.294Z,8.5
2023-03-03T11:12:12.251Z,9
2023-03-03T11:15:12.212Z,9.4
2023-03-03T11:18:12.445Z,9.6
2023-03-03T11:21:12.519Z,10
2023-03-03T11:24:12.199Z,10
2023-03-03T11:27:12.588Z,10.4
2023-03-03T11:30:12.291Z,10.8
2023-03-03T11:33:12.233Z,10.8
2023-03-03T11:36:12.434Z,10.9
2023-03-03T11:39:12.378Z,11
2023-03-03T11:42:12.265Z,11.3
2023-03-03T11:45:12.313Z,11.4
2023-03-03T11:48:12.273Z,11.1
2023-03-03T11:51:12.230Z,11.8
2023-03-03T11:54:12.680Z,11.9
2023-03-03T11:57:12.227Z,11.8
2023-03-03T12:00:12.261Z,11.4
2023-03-03T12:03:12.208Z,11.1
2023-03-03T12:06:15.512Z,11.3
2023-03-03T12:09:12.228Z,11.6
2023-03-03T12:12:12.258Z,11.8
2023-03-03T12:15:12.142Z,11.5
2023-03-03T12:18:12.242Z,11.3
2023-03-03T12:21:12.179Z,10.8
2023-03-03T12:24:15.563Z,10.3
2023-03-03T12:27:12.314Z,10.1
2023-03-03T12:30:16.092Z,10.8
2023-03-03T12:33:12.409Z,10.8
2023-03-03T12:36:12.384Z,10.8
2023-03-03T12:39:13.523Z,10.8
2023-03-03T12:42:14.268Z,10.8
2023-03-03T12:45:12.236Z,10.5
2023-03-03T12:48:12.324Z,10.5
2023-03-03T12:51:12.352Z,10.6
2023-03-03T12:54:12.261Z,10.9
2023-03-03T12:57:12.255Z,11.1
2023-03-03T13:00:12.316Z,10.9
2023-03-03T13:03:12.448Z,10.8
2023-03-03T13:06:12.231Z,10.6
2023-03-03T13:09:12.278Z,10.5
2023-03-03T13:12:43.064Z,10.5
2023-03-03T13:15:13.795Z,10.3
2023-03-03T13:18:12.243Z,10
2023-03-03T13:21:12.294Z,10
2023-03-03T13:24:12.278Z,10.1
2023-03-03T13:27:12.262Z,10.3
2023-03-03T13:30:12.466Z,10.5
2023-03-03T13:33:12.282Z,10.5
2023-03-03T13:36:12.489Z,10.6
2023-03-03T13:39:12.338Z,10.5
2023-03-03T13:42:12.268Z,10.4
2023-03-03T13:45:12.383Z,10.4
2023-03-03T13:48:12.384Z,10.4
2023-03-03T13:51:12.291Z,10.8
2023-03-03T13:54:12.285Z,11.3
2023-03-03T13:57:12.234Z,11.4
2023-03-03T14:00:12.292Z,11.5
2023-03-03T14:03:12.188Z,11.4
2023-03-03T14:06:12.200Z,11.3
2023-03-03T14:09:12.312Z,10.9
2023-03-03T14:12:12.326Z,10.5
2023-03-03T14:15:12.269Z,10.3
2023-03-03T14:18:12.356Z,10
2023-03-03T14:21:12.233Z,9.5
2023-03-03T14:24:12.243Z,9.1
2023-03-03T14:27:12.461Z,8.6
2023-03-03T14:30:12.342Z,8.5
2023-03-03T14:33:12.530Z,8.1
2023-03-03T14:36:12.597Z,8.1
2023-03-03T14:39:12.205Z,8.5
2023-03-03T14:42:12.282Z,9
2023-03-03T14:45:31.950Z,9.5
2023-03-03T14:48:12.285Z,9.5
2023-03-03T14:51:12.591Z,9.9
2023-03-03T14:54:13.311Z,10
2023-03-03T14:57:12.217Z,9.8
2023-03-03T15:00:12.347Z,9.5
2023-03-03T15:03:13.962Z,9.3
2023-03-03T15:06:12.219Z,9.3
2023-03-03T15:09:12.196Z,9.3
2023-03-03T15:12:12.165Z,9.1
2023-03-03T15:15:15.650Z,9
2023-03-03T15:18:12.345Z,8.8
2023-03-03T15:21:12.314Z,8.5
2023-03-03T15:24:12.463Z,8.3
2023-03-03T15:27:12.187Z,8
2023-03-03T15:30:12.465Z,7.7
2023-03-03T15:33:12.616Z,7.6
2023-03-03T15:36:12.342Z,7.4
2023-03-03T15:39:12.300Z,7.1
2023-03-03T15:42:12.216Z,6.7
2023-03-03T15:45:12.255Z,6.5
2023-03-03T15:48:12.230Z,6.5
2023-03-03T15:51:12.152Z,6.5
2023-03-03T15:54:12.174Z,5.5
2023-03-03T15:57:12.219Z,5.2
2023-03-03T16:00:12.278Z,5
2023-03-03T16:03:12.969Z,5
2023-03-03T16:06:12.371Z,4.7
2023-03-03T16:09:12.180Z,4.7
2023-03-03T16:12:12.268Z,4.7
2023-03-03T16:15:12.283Z,4.7
2023-03-03T16:18:12.266Z,4.6
2023-03-03T16:21:12.283Z,4.6
2023-03-03T16:24:12.232Z,4.6
2023-03-03T16:27:12.161Z,4.6
2023-03-03T16:30:12.431Z,4.2
2023-03-03T16:33:12.291Z,4.2
2023-03-03T16:36:12.669Z,4.1
2023-03-03T16:39:12.234Z,4
2023-03-03T16:42:12.201Z,3.9
2023-03-03T16:45:12.213Z,3.7
2023-03-03T16:48:12.223Z,3.6
2023-03-03T16:51:12.267Z,3.5
2023-03-03T16:54:12.246Z,3.5
2023-03-03T16:57:12.226Z,3.4
2023-03-03T17:00:12.383Z,3.2
2023-03-03T17:03:12.193Z,3.2
2023-03-03T17:06:12.102Z,3.1
2023-03-03T17:09:15.829Z,3.1
2023-03-03T17:12:12.170Z,3.1
2023-03-03T17:15:12.212Z,3
2023-03-03T17:18:12.121Z,2.9
2023-03-03T17:21:12.151Z,2.7
2023-03-03T17:24:12.153Z,2.6
2023-03-03T17:27:12.228Z,2.5
2023-03-03T17:30:12.295Z,2.4
2023-03-03T17:33:12.120Z,2.1
2023-03-03T17:36:12.211Z,2
2023-03-03T17:39:12.151Z,1.8
2023-03-03T17:42:12.165Z,1.5
2023-03-03T17:45:12.178Z,1.4
2023-03-03T17:48:12.255Z,1.1
2023-03-03T17:51:12.176Z,1
2023-03-03T17:54:12.187Z,0.9
2023-03-03T17:57:12.125Z,0.8
2023-03-03T18:00:12.476Z,0.6
2023-03-03T18:03:12.509Z,0.4
2023-03-03T18:06:12.134Z,0.4
2023-03-03T18:09:25.963Z,0.1
2023-03-03T18:12:12.129Z,0
2023-03-03T18:15:12.253Z,-0.1
2023-03-03T18:18:12.197Z,-0.3
2023-03-03T18:21:12.212Z,-0.4
2023-03-03T18:24:12.103Z,-0.5
2023-03-03T18:27:12.051Z,-0.5
2023-03-03T18:30:12.228Z,-0.6
2023-03-03T18:33:12.244Z,-0.6
2023-03-03T18:36:12.320Z,-0.8
2023-03-03T18:39:12.171Z,-0.8
2023-03-03T18:42:12.219Z,-0.8
2023-03-03T18:45:12.182Z,-0.6
2023-03-03T18:48:12.278Z,-0.6
2023-03-03T18:51:12.150Z,-0.6
2023-03-03T18:54:12.172Z,-0.5
2023-03-03T18:57:12.072Z,-0.4
2023-03-03T19:00:12.252Z,-0.1
2023-03-03T19:03:12.161Z,0.1
2023-03-03T19:06:12.219Z,0.4
2023-03-03T19:09:12.245Z,0.6
2023-03-03T19:12:12.136Z,0.9
2023-03-03T19:15:14.245Z,1.1
2023-03-03T19:18:12.196Z,1.3
2023-03-03T19:21:12.139Z,1.4
2023-03-03T19:24:12.268Z,1.5
2023-03-03T19:27:12.219Z,1.6
2023-03-03T19:30:12.198Z,1.8
2023-03-03T19:33:12.125Z,1.9
2023-03-03T19:36:12.201Z,2
2023-03-03T19:39:12.101Z,2
2023-03-03T19:42:12.199Z,2.1
2023-03-03T19:45:12.481Z,2.2
2023-03-03T19:48:12.168Z,2.2
2023-03-03T19:51:12.367Z,2.4
2023-03-03T19:54:12.188Z,2.4
2023-03-03T19:57:12.251Z,2.5
2023-03-03T20:00:12.168Z,2.5
2023-03-03T20:03:12.446Z,2.5
2023-03-03T20:06:12.399Z,2.6
2023-03-03T20:09:12.184Z,2.6
2023-03-03T20:12:12.134Z,2.6
2023-03-03T20:15:12.296Z,2.6
2023-03-03T20:18:12.166Z,2.7
2023-03-03T20:21:12.270Z,2.7
2023-03-03T20:24:12.169Z,2.7
2023-03-03T20:27:12.202Z,2.7
2023-03-03T20:30:12.230Z,2.7
2023-03-03T20:33:12.243Z,2.7
2023-03-03T20:36:12.175Z,2.9
2023-03-03T20:39:12.159Z,2.9
2023-03-03T20:42:12.123Z,2.9
2023-03-03T20:45:12.300Z,2.9
2023-03-03T20:48:14.289Z,3
2023-03-03T20:51:12.258Z,3
2023-03-03T20:54:12.218Z,3
2023-03-03T20:57:12.223Z,3
2023-03-03T21:00:12.086Z,3
2023-03-03T21:03:12.124Z,3
2023-03-03T21:06:12.117Z,3.1
2023-03-03T21:09:12.163Z,3.1
2023-03-03T21:12:12.263Z,3.1
2023-03-03T21:15:12.149Z,3.1
2023-03-03T21:18:12.147Z,3.1
2023-03-03T21:21:12.225Z,3.2
2023-03-03T21:24:12.125Z,3.2
2023-03-03T21:27:12.150Z,3.2
2023-03-03T21:30:12.193Z,3.2
2023-03-03T21:33:12.097Z,3.4
2023-03-03T21:36:12.173Z,3.4
2023-03-03T21:39:12.091Z,3.4
2023-03-03T21:42:12.230Z,3.4
2023-03-03T21:45:12.805Z,3.4
2023-03-03T21:48:13.894Z,3.4
2023-03-03T21:51:12.121Z,3.4
2023-03-03T21:54:12.203Z,3.4
2023-03-03T21:57:12.115Z,3.4
2023-03-03T22:00:12.306Z,3.5
2023-03-03T22:03:12.110Z,3.5
2023-03-03T22:06:12.149Z,3.5
2023-03-03T22:09:12.193Z,3.5
2023-03-03T22:12:12.161Z,3.5
2023-03-03T22:15:12.164Z,3.5
2023-03-03T22:18:12.134Z,3.5
2023-03-03T22:21:12.091Z,3.5
2023-03-03T22:24:12.169Z,3.5
2023-03-03T22:27:12.228Z,3.4
2023-03-03T22:30:12.151Z,3.4
2023-03-03T22:33:12.226Z,3.4
2023-03-03T22:36:12.147Z,3.4
2023-03-03T22:39:12.202Z,3.4
2023-03-03T22:42:12.180Z,3.4
2023-03-03T22:45:12.179Z,3.4
2023-03-03T22:48:12.152Z,3.4
2023-03-03T22:51:12.114Z,3.4
2023-03-03T22:54:12.184Z,3.4
2023-03-03T22:57:12.229Z,3.4
2023-03-03T23:00:12.934Z,3.2
2023-03-03T23:03:12.478Z,3.2
2023-03-03T23:06:12.413Z,3.1
2023-03-03T23:09:12.158Z,3
2023-03-03T23:12:12.196Z,2.9
2023-03-03T23:15:12.135Z,2.6
2023-03-03T23:18:12.180Z,2.6
2023-03-03T23:21:12.363Z,2.5
2023-03-03T23:24:12.231Z,2.5
2023-03-03T23:27:12.133Z,2.5
2023-03-03T23:30:12.175Z,2.4
2023-03-03T23:33:12.193Z,2.4
2023-03-03T23:36:12.359Z,2.4
2023-03-03T23:39:12.172Z,2.4
2023-03-03T23:42:12.539Z,2.4
2023-03-03T23:45:12.278Z,2.4
2023-03-03T23:48:12.192Z,2.4
2023-03-03T23:51:12.161Z,2.5
2023-03-03T23:54:12.132Z,2.7
2023-03-03T23:57:12.295Z,2.7
